Startpagina
METAR-TAF:

METAR-TAF

Vliegvelden :

Luchthaven Genève

Genève, Zwitserland

breedte: 46-15N, lengte: 006-08E, hoogte: 420 m

Actueel weer

Dit bericht is 9 minuten geleden gemaakt, om 06:50 UTC
Wind 2 kt uit het noordwesten
Temperatuur -2°C
Vochtigheid 93%
Druk 1031 hPa
Zicht: 9000 m
Ondiepe mist

METAR: LSGG 160650Z 32002KT 9000 MIFG NSC M02/M03 Q1031 NOSIG

Tijdstip: 07:59 (06:59 UTC)

Verwachting

Dit bericht is 1 uur en het 34 minuten geleden gemaakt, om 05:25 UTC
Verwachting geldig van 16 om 06 UTC tot 17 om 12 UTC
Wind 3 kt uit variabele richting
Zicht 10 km of meer
geen wolken onder 1500 m en geen cumulonimbus
Kans 30%
van 17 om 06 UTC tot 17 om 08 UTC
Zicht: 4500 m
nevel

TAF: LSGG 160525Z 1606/1712 VRB03KT CAVOK TX11/1615Z TNM02/1606Z TNM03/1705Z PROB30 1706/1708 4500 BR NSC

Waarnemingen en weersverwachtingen van meer dan 4000 vliegvelden (METAR en TAF).

De beschikbare stations zijn de gele en rode punten op de kaart.

Ga met uw muis naar het station om de naam te zien.

Klik dan om waarnemingen en weersverwachtingen te zien.

kaart wijzigen: klik op de groene knoppen met een zwart kruis om in te zoomen, op de groene knop met een streepje om uit te zoomen of op de groene pijlen voor aangrenzende kaarten.


METAR-TAF: